sensor_id;sensor_type;location;lat;lon;timestamp;temperature;humidity
19781;DHT22;10050;55.492;13.506;2022-08-23T00:01:32;16.10;99.90
19781;DHT22;10050;55.492;13.506;2022-08-23T00:04:05;16.00;99.90
19781;DHT22;10050;55.492;13.506;2022-08-23T00:06:32;16.00;99.90
19781;DHT22;10050;55.492;13.506;2022-08-23T00:08:58;16.00;99.90
19781;DHT22;10050;55.492;13.506;2022-08-23T00:14:00;15.90;99.90
19781;DHT22;10050;55.492;13.506;2022-08-23T00:16:26;15.90;99.90
19781;DHT22;10050;55.492;13.506;2022-08-23T00:18:52;15.90;99.90
19781;DHT22;10050;55.492;13.506;2022-08-23T00:21:18;15.80;99.90
19781;DHT22;10050;55.492;13.506;2022-08-23T00:23:44;15.80;99.90
19781;DHT22;10050;55.492;13.506;2022-08-23T00:26:10;15.80;99.90
19781;DHT22;10050;55.492;13.506;2022-08-23T00:28:36;15.80;99.90
19781;DHT22;10050;55.492;13.506;2022-08-23T00:31:02;15.70;99.90
19781;DHT22;10050;55.492;13.506;2022-08-23T00:33:28;15.70;99.90
19781;DHT22;10050;55.492;13.506;2022-08-23T00:35:53;15.70;99.90
19781;DHT22;10050;55.492;13.506;2022-08-23T00:38:19;15.70;99.90
19781;DHT22;10050;55.492;13.506;2022-08-23T00:40:50;15.70;99.90
19781;DHT22;10050;55.492;13.506;2022-08-23T00:43:25;15.70;99.90
19781;DHT22;10050;55.492;13.506;2022-08-23T00:48:59;15.60;99.90
19781;DHT22;10050;55.492;13.506;2022-08-23T00:51:40;15.60;99.90
19781;DHT22;10050;55.492;13.506;2022-08-23T00:54:09;15.60;99.90
19781;DHT22;10050;55.492;13.506;2022-08-23T00:56:36;15.70;99.90
19781;DHT22;10050;55.492;13.506;2022-08-23T00:59:04;15.70;99.90
19781;DHT22;10050;55.492;13.506;2022-08-23T01:01:30;15.60;99.90
19781;DHT22;10050;55.492;13.506;2022-08-23T01:03:57;15.70;99.90
19781;DHT22;10050;55.492;13.506;2022-08-23T01:06:34;15.70;99.90
19781;DHT22;10050;55.492;13.506;2022-08-23T01:09:08;15.70;99.90
19781;DHT22;10050;55.492;13.506;2022-08-23T01:11:57;15.80;99.90
19781;DHT22;10050;55.492;13.506;2022-08-23T01:17:21;15.70;99.90
19781;DHT22;10050;55.492;13.506;2022-08-23T01:19:56;15.80;99.90
19781;DHT22;10050;55.492;13.506;2022-08-23T01:22:50;15.80;99.90
19781;DHT22;10050;55.492;13.506;2022-08-23T01:25:20;15.70;99.90
19781;DHT22;10050;55.492;13.506;2022-08-23T01:27:47;15.70;99.90
19781;DHT22;10050;55.492;13.506;2022-08-23T01:30:16;15.70;99.90
19781;DHT22;10050;55.492;13.506;2022-08-23T01:32:50;15.70;99.90
19781;DHT22;10050;55.492;13.506;2022-08-23T01:35:18;15.70;99.90
19781;DHT22;10050;55.492;13.506;2022-08-23T01:37:44;15.70;99.90
19781;DHT22;10050;55.492;13.506;2022-08-23T01:40:11;15.70;99.90
19781;DHT22;10050;55.492;13.506;2022-08-23T01:42:37;15.70;99.90
19781;DHT22;10050;55.492;13.506;2022-08-23T01:45:15;15.70;99.90
19781;DHT22;10050;55.492;13.506;2022-08-23T01:47:41;15.70;99.90
19781;DHT22;10050;55.492;13.506;2022-08-23T01:50:08;15.70;99.90
19781;DHT22;10050;55.492;13.506;2022-08-23T01:52:35;15.70;99.90
19781;DHT22;10050;55.492;13.506;2022-08-23T01:55:02;15.70;99.90
19781;DHT22;10050;55.492;13.506;2022-08-23T01:57:29;15.70;99.90
19781;DHT22;10050;55.492;13.506;2022-08-23T01:59:56;15.70;99.90
19781;DHT22;10050;55.492;13.506;2022-08-23T02:02:22;15.70;99.90
19781;DHT22;10050;55.492;13.506;2022-08-23T02:04:47;15.70;99.90
19781;DHT22;10050;55.492;13.506;2022-08-23T02:07:13;15.70;99.90
19781;DHT22;10050;55.492;13.506;2022-08-23T02:09:39;15.70;99.90
19781;DHT22;10050;55.492;13.506;2022-08-23T02:12:05;15.70;99.90
19781;DHT22;10050;55.492;13.506;2022-08-23T02:14:31;15.60;99.90
19781;DHT22;10050;55.492;13.506;2022-08-23T02:16:57;15.60;99.90
19781;DHT22;10050;55.492;13.506;2022-08-23T02:19:24;15.60;99.90
19781;DHT22;10050;55.492;13.506;2022-08-23T02:21:50;15.70;99.90
19781;DHT22;10050;55.492;13.506;2022-08-23T02:24:19;15.60;99.90
19781;DHT22;10050;55.492;13.506;2022-08-23T02:26:48;15.60;99.90
19781;DHT22;10050;55.492;13.506;2022-08-23T02:29:15;15.70;99.90
19781;DHT22;10050;55.492;13.506;2022-08-23T02:31:41;15.70;99.90
19781;DHT22;10050;55.492;13.506;2022-08-23T02:34:13;15.70;99.90
19781;DHT22;10050;55.492;13.506;2022-08-23T02:36:39;15.60;99.90
19781;DHT22;10050;55.492;13.506;2022-08-23T02:39:05;15.60;99.90
19781;DHT22;10050;55.492;13.506;2022-08-23T02:41:32;15.60;99.90
19781;DHT22;10050;55.492;13.506;2022-08-23T02:43:58;15.60;99.90
19781;DHT22;10050;55.492;13.506;2022-08-23T02:46:24;15.60;99.90
19781;DHT22;10050;55.492;13.506;2022-08-23T02:48:50;15.60;99.90
19781;DHT22;10050;55.492;13.506;2022-08-23T02:51:16;15.60;99.90
19781;DHT22;10050;55.492;13.506;2022-08-23T02:53:43;15.60;99.90
19781;DHT22;10050;55.492;13.506;2022-08-23T02:56:09;15.50;99.90
19781;DHT22;10050;55.492;13.506;2022-08-23T02:58:35;15.60;99.90
19781;DHT22;10050;55.492;13.506;2022-08-23T03:01:01;15.60;99.90
19781;DHT22;10050;55.492;13.506;2022-08-23T03:03:27;15.60;99.90
19781;DHT22;10050;55.492;13.506;2022-08-23T03:05:54;15.50;99.90
19781;DHT22;10050;55.492;13.506;2022-08-23T03:08:22;15.60;99.90
19781;DHT22;10050;55.492;13.506;2022-08-23T03:10:50;15.50;99.90
19781;DHT22;10050;55.492;13.506;2022-08-23T03:13:18;15.50;99.90
19781;DHT22;10050;55.492;13.506;2022-08-23T03:15:45;15.60;99.90
19781;DHT22;10050;55.492;13.506;2022-08-23T03:18:10;15.60;99.90
19781;DHT22;10050;55.492;13.506;2022-08-23T03:20:40;15.50;99.90
19781;DHT22;10050;55.492;13.506;2022-08-23T03:23:07;15.60;99.90
19781;DHT22;10050;55.492;13.506;2022-08-23T03:25:33;15.50;99.90
19781;DHT22;10050;55.492;13.506;2022-08-23T03:28:02;15.50;99.90
19781;DHT22;10050;55.492;13.506;2022-08-23T03:30:29;15.50;99.90
19781;DHT22;10050;55.492;13.506;2022-08-23T03:32:55;15.50;99.90
19781;DHT22;10050;55.492;13.506;2022-08-23T03:35:20;15.60;99.90
19781;DHT22;10050;55.492;13.506;2022-08-23T03:37:46;15.60;99.90
19781;DHT22;10050;55.492;13.506;2022-08-23T03:40:12;15.60;99.90
19781;DHT22;10050;55.492;13.506;2022-08-23T03:42:38;15.60;99.90
19781;DHT22;10050;55.492;13.506;2022-08-23T03:45:04;15.60;99.90
19781;DHT22;10050;55.492;13.506;2022-08-23T03:47:30;15.60;99.90
19781;DHT22;10050;55.492;13.506;2022-08-23T03:49:56;15.70;99.90
19781;DHT22;10050;55.492;13.506;2022-08-23T03:52:22;15.70;99.90
19781;DHT22;10050;55.492;13.506;2022-08-23T03:54:47;15.70;99.90
19781;DHT22;10050;55.492;13.506;2022-08-23T03:57:13;15.70;99.90
19781;DHT22;10050;55.492;13.506;2022-08-23T03:59:40;15.80;99.90
19781;DHT22;10050;55.492;13.506;2022-08-23T04:02:06;15.80;99.90
19781;DHT22;10050;55.492;13.506;2022-08-23T04:04:31;15.90;99.90
19781;DHT22;10050;55.492;13.506;2022-08-23T04:06:57;15.90;99.90
19781;DHT22;10050;55.492;13.506;2022-08-23T04:09:23;15.80;99.90
19781;DHT22;10050;55.492;13.506;2022-08-23T04:11:49;15.80;99.90
19781;DHT22;10050;55.492;13.506;2022-08-23T04:14:15;15.80;99.90
19781;DHT22;10050;55.492;13.506;2022-08-23T04:16:41;15.80;99.90
19781;DHT22;10050;55.492;13.506;2022-08-23T04:19:09;15.90;99.90
19781;DHT22;10050;55.492;13.506;2022-08-23T04:21:40;15.90;99.90
19781;DHT22;10050;55.492;13.506;2022-08-23T04:24:07;15.90;99.90
19781;DHT22;10050;55.492;13.506;2022-08-23T04:26:33;15.90;99.90
19781;DHT22;10050;55.492;13.506;2022-08-23T04:28:59;15.90;99.90
19781;DHT22;10050;55.492;13.506;2022-08-23T04:31:26;15.90;99.90
19781;DHT22;10050;55.492;13.506;2022-08-23T04:33:52;16.00;99.90
19781;DHT22;10050;55.492;13.506;2022-08-23T04:36:19;16.00;99.90
19781;DHT22;10050;55.492;13.506;2022-08-23T04:38:44;16.00;99.90
19781;DHT22;10050;55.492;13.506;2022-08-23T04:41:10;16.00;99.90
19781;DHT22;10050;55.492;13.506;2022-08-23T04:43:54;16.00;99.90
19781;DHT22;10050;55.492;13.506;2022-08-23T04:46:21;16.10;99.90
19781;DHT22;10050;55.492;13.506;2022-08-23T04:48:47;16.10;99.90
19781;DHT22;10050;55.492;13.506;2022-08-23T04:51:13;16.20;99.90
19781;DHT22;10050;55.492;13.506;2022-08-23T04:53:39;16.30;99.90
19781;DHT22;10050;55.492;13.506;2022-08-23T04:56:05;16.30;99.90
19781;DHT22;10050;55.492;13.506;2022-08-23T04:58:32;16.40;99.90
19781;DHT22;10050;55.492;13.506;2022-08-23T05:01:00;16.40;99.90
19781;DHT22;10050;55.492;13.506;2022-08-23T05:03:27;16.50;99.90
19781;DHT22;10050;55.492;13.506;2022-08-23T05:05:54;16.50;99.90
19781;DHT22;10050;55.492;13.506;2022-08-23T05:08:22;16.50;99.90
19781;DHT22;10050;55.492;13.506;2022-08-23T05:10:48;16.60;99.90
19781;DHT22;10050;55.492;13.506;2022-08-23T05:13:14;16.70;99.90
19781;DHT22;10050;55.492;13.506;2022-08-23T05:15:39;16.70;99.90
19781;DHT22;10050;55.492;13.506;2022-08-23T05:18:06;16.70;99.90
19781;DHT22;10050;55.492;13.506;2022-08-23T05:20:32;16.80;99.90
19781;DHT22;10050;55.492;13.506;2022-08-23T05:22:59;16.90;99.90
19781;DHT22;10050;55.492;13.506;2022-08-23T05:25:25;17.00;99.90
19781;DHT22;10050;55.492;13.506;2022-08-23T05:28:12;17.00;99.90
19781;DHT22;10050;55.492;13.506;2022-08-23T05:30:38;17.10;99.90
19781;DHT22;10050;55.492;13.506;2022-08-23T05:33:04;17.20;99.90
19781;DHT22;10050;55.492;13.506;2022-08-23T05:35:30;17.20;99.90
19781;DHT22;10050;55.492;13.506;2022-08-23T05:37:56;17.20;99.90
19781;DHT22;10050;55.492;13.506;2022-08-23T05:40:25;17.30;99.90
19781;DHT22;10050;55.492;13.506;2022-08-23T05:42:51;17.30;99.90
19781;DHT22;10050;55.492;13.506;2022-08-23T05:45:16;17.40;99.90
19781;DHT22;10050;55.492;13.506;2022-08-23T05:47:42;17.40;99.90
19781;DHT22;10050;55.492;13.506;2022-08-23T05:50:09;17.50;99.90
19781;DHT22;10050;55.492;13.506;2022-08-23T05:52:34;17.60;99.90
19781;DHT22;10050;55.492;13.506;2022-08-23T05:55:01;17.60;99.90
19781;DHT22;10050;55.492;13.506;2022-08-23T05:57:27;17.60;99.90
19781;DHT22;10050;55.492;13.506;2022-08-23T05:59:52;17.70;99.90
19781;DHT22;10050;55.492;13.506;2022-08-23T06:02:18;17.70;99.90
19781;DHT22;10050;55.492;13.506;2022-08-23T06:04:43;17.80;99.90
19781;DHT22;10050;55.492;13.506;2022-08-23T06:07:09;17.80;99.90
19781;DHT22;10050;55.492;13.506;2022-08-23T06:09:36;18.00;99.90
19781;DHT22;10050;55.492;13.506;2022-08-23T06:12:02;18.10;99.90
19781;DHT22;10050;55.492;13.506;2022-08-23T06:14:27;18.10;99.90
19781;DHT22;10050;55.492;13.506;2022-08-23T06:16:53;18.10;99.90
19781;DHT22;10050;55.492;13.506;2022-08-23T06:19:19;18.20;99.90
19781;DHT22;10050;55.492;13.506;2022-08-23T06:21:45;18.20;99.90
19781;DHT22;10050;55.492;13.506;2022-08-23T06:24:10;18.40;99.90
19781;DHT22;10050;55.492;13.506;2022-08-23T06:26:39;18.50;99.90
19781;DHT22;10050;55.492;13.506;2022-08-23T06:29:09;18.60;99.90
19781;DHT22;10050;55.492;13.506;2022-08-23T06:31:42;18.60;99.90
19781;DHT22;10050;55.492;13.506;2022-08-23T06:34:30;18.60;99.90
19781;DHT22;10050;55.492;13.506;2022-08-23T06:37:03;18.70;99.90
19781;DHT22;10050;55.492;13.506;2022-08-23T06:39:29;18.70;99.90
19781;DHT22;10050;55.492;13.506;2022-08-23T06:42:15;18.60;99.90
19781;DHT22;10050;55.492;13.506;2022-08-23T06:44:42;18.60;99.90
19781;DHT22;10050;55.492;13.506;2022-08-23T06:47:08;18.70;99.90
19781;DHT22;10050;55.492;13.506;2022-08-23T06:49:34;18.80;99.90
19781;DHT22;10050;55.492;13.506;2022-08-23T06:52:02;18.90;99.90
19781;DHT22;10050;55.492;13.506;2022-08-23T06:54:31;19.00;99.90
19781;DHT22;10050;55.492;13.506;2022-08-23T06:56:57;19.00;99.90
19781;DHT22;10050;55.492;13.506;2022-08-23T06:59:23;19.10;99.90
19781;DHT22;10050;55.492;13.506;2022-08-23T07:01:55;19.20;99.90
19781;DHT22;10050;55.492;13.506;2022-08-23T07:04:28;19.20;99.90
19781;DHT22;10050;55.492;13.506;2022-08-23T07:06:54;19.30;99.90
19781;DHT22;10050;55.492;13.506;2022-08-23T07:09:21;19.40;99.90
19781;DHT22;10050;55.492;13.506;2022-08-23T07:11:47;19.50;99.90
19781;DHT22;10050;55.492;13.506;2022-08-23T07:14:14;19.60;99.90
19781;DHT22;10050;55.492;13.506;2022-08-23T07:16:55;19.70;99.90
19781;DHT22;10050;55.492;13.506;2022-08-23T07:19:24;19.90;99.90
19781;DHT22;10050;55.492;13.506;2022-08-23T07:21:51;19.90;99.90
19781;DHT22;10050;55.492;13.506;2022-08-23T07:24:18;20.00;99.90
19781;DHT22;10050;55.492;13.506;2022-08-23T07:26:45;20.10;99.90
19781;DHT22;10050;55.492;13.506;2022-08-23T07:29:12;20.20;99.90
19781;DHT22;10050;55.492;13.506;2022-08-23T07:31:43;20.30;99.90
19781;DHT22;10050;55.492;13.506;2022-08-23T07:34:10;20.40;99.90
19781;DHT22;10050;55.492;13.506;2022-08-23T07:36:36;20.40;99.90
19781;DHT22;10050;55.492;13.506;2022-08-23T07:39:04;20.40;99.90
19781;DHT22;10050;55.492;13.506;2022-08-23T07:41:30;20.50;99.90
19781;DHT22;10050;55.492;13.506;2022-08-23T07:44:01;20.40;99.90
19781;DHT22;10050;55.492;13.506;2022-08-23T07:46:28;20.40;99.90
19781;DHT22;10050;55.492;13.506;2022-08-23T07:48:55;20.40;99.90
19781;DHT22;10050;55.492;13.506;2022-08-23T07:51:23;20.40;99.90
19781;DHT22;10050;55.492;13.506;2022-08-23T07:53:49;20.40;99.90
19781;DHT22;10050;55.492;13.506;2022-08-23T07:56:16;20.40;99.90
19781;DHT22;10050;55.492;13.506;2022-08-23T07:58:42;20.50;99.90
19781;DHT22;10050;55.492;13.506;2022-08-23T08:01:13;20.50;99.90
19781;DHT22;10050;55.492;13.506;2022-08-23T08:03:44;20.60;99.90
19781;DHT22;10050;55.492;13.506;2022-08-23T08:06:12;20.60;99.90
19781;DHT22;10050;55.492;13.506;2022-08-23T08:08:39;20.60;99.90
19781;DHT22;10050;55.492;13.506;2022-08-23T08:11:07;20.60;99.90
19781;DHT22;10050;55.492;13.506;2022-08-23T08:13:33;20.60;99.90
19781;DHT22;10050;55.492;13.506;2022-08-23T08:15:59;20.60;99.90
19781;DHT22;10050;55.492;13.506;2022-08-23T08:18:25;20.70;99.90
19781;DHT22;10050;55.492;13.506;2022-08-23T08:20:51;20.70;99.90
19781;DHT22;10050;55.492;13.506;2022-08-23T08:23:16;20.80;99.90
19781;DHT22;10050;55.492;13.506;2022-08-23T08:25:42;20.90;99.90
19781;DHT22;10050;55.492;13.506;2022-08-23T08:28:08;21.00;99.90
19781;DHT22;10050;55.492;13.506;2022-08-23T08:30:34;21.00;99.90
19781;DHT22;10050;55.492;13.506;2022-08-23T08:33:00;21.00;99.90
19781;DHT22;10050;55.492;13.506;2022-08-23T08:35:25;21.10;99.90
19781;DHT22;10050;55.492;13.506;2022-08-23T08:37:51;21.20;99.90
19781;DHT22;10050;55.492;13.506;2022-08-23T08:40:25;21.30;99.90
19781;DHT22;10050;55.492;13.506;2022-08-23T08:45:57;21.60;99.90
19781;DHT22;10050;55.492;13.506;2022-08-23T08:48:27;21.70;99.90
19781;DHT22;10050;55.492;13.506;2022-08-23T08:50:58;21.70;99.90
19781;DHT22;10050;55.492;13.506;2022-08-23T08:53:46;21.80;99.90
19781;DHT22;10050;55.492;13.506;2022-08-23T08:56:29;22.00;99.90
19781;DHT22;10050;55.492;13.506;2022-08-23T08:59:01;22.10;99.90
19781;DHT22;10050;55.492;13.506;2022-08-23T09:01:30;22.20;99.90
19781;DHT22;10050;55.492;13.506;2022-08-23T09:03:56;22.10;99.90
19781;DHT22;10050;55.492;13.506;2022-08-23T09:06:54;22.20;99.90
19781;DHT22;10050;55.492;13.506;2022-08-23T09:14:51;23.60;99.90
19781;DHT22;10050;55.492;13.506;2022-08-23T09:17:42;23.70;99.90
19781;DHT22;10050;55.492;13.506;2022-08-23T09:20:10;23.90;99.90
19781;DHT22;10050;55.492;13.506;2022-08-23T09:22:40;24.90;99.90
19781;DHT22;10050;55.492;13.506;2022-08-23T09:25:08;25.80;99.90
19781;DHT22;10050;55.492;13.506;2022-08-23T09:27:36;26.60;99.90
19781;DHT22;10050;55.492;13.506;2022-08-23T09:30:03;27.20;99.90
19781;DHT22;10050;55.492;13.506;2022-08-23T09:32:35;27.60;99.90
19781;DHT22;10050;55.492;13.506;2022-08-23T09:37:48;27.90;99.90
19781;DHT22;10050;55.492;13.506;2022-08-23T09:41:03;28.40;99.90
19781;DHT22;10050;55.492;13.506;2022-08-23T09:43:11;28.90;99.90
19781;DHT22;10050;55.492;13.506;2022-08-23T09:48:37;28.80;99.90
19781;DHT22;10050;55.492;13.506;2022-08-23T09:53:47;28.70;99.70
19781;DHT22;10050;55.492;13.506;2022-08-23T09:56:17;28.80;99.90
19781;DHT22;10050;55.492;13.506;2022-08-23T09:58:48;29.00;99.90
19781;DHT22;10050;55.492;13.506;2022-08-23T10:01:29;29.10;96.60
19781;DHT22;10050;55.492;13.506;2022-08-23T10:04:12;28.30;97.30
19781;DHT22;10050;55.492;13.506;2022-08-23T10:06:40;28.40;97.10
19781;DHT22;10050;55.492;13.506;2022-08-23T10:09:08;28.60;99.90
19781;DHT22;10050;55.492;13.506;2022-08-23T10:11:44;28.90;95.90
19781;DHT22;10050;55.492;13.506;2022-08-23T10:14:17;28.70;95.00
19781;DHT22;10050;55.492;13.506;2022-08-23T10:19:54;29.30;96.30
19781;DHT22;10050;55.492;13.506;2022-08-23T10:22:24;28.80;96.30
19781;DHT22;10050;55.492;13.506;2022-08-23T10:25:02;29.00;97.40
19781;DHT22;10050;55.492;13.506;2022-08-23T10:30:22;29.20;93.30
19781;DHT22;10050;55.492;13.506;2022-08-23T10:35:42;29.40;95.10
19781;DHT22;10050;55.492;13.506;2022-08-23T10:43:41;30.10;94.90
19781;DHT22;10050;55.492;13.506;2022-08-23T10:46:09;30.10;96.00
19781;DHT22;10050;55.492;13.506;2022-08-23T10:48:47;30.40;94.90
19781;DHT22;10050;55.492;13.506;2022-08-23T10:51:24;30.10;93.10
19781;DHT22;10050;55.492;13.506;2022-08-23T10:56:21;29.20;93.80
19781;DHT22;10050;55.492;13.506;2022-08-23T10:58:58;29.10;95.90
19781;DHT22;10050;55.492;13.506;2022-08-23T11:01:48;29.10;94.90
19781;DHT22;10050;55.492;13.506;2022-08-23T11:06:58;29.50;94.80
19781;DHT22;10050;55.492;13.506;2022-08-23T11:17:01;29.40;96.80
19781;DHT22;10050;55.492;13.506;2022-08-23T11:19:58;29.50;95.40
19781;DHT22;10050;55.492;13.506;2022-08-23T11:22:27;29.20;94.80
19781;DHT22;10050;55.492;13.506;2022-08-23T11:25:05;28.80;94.00
19781;DHT22;10050;55.492;13.506;2022-08-23T11:27:37;28.80;95.40
19781;DHT22;10050;55.492;13.506;2022-08-23T11:35:51;28.60;95.30
19781;DHT22;10050;55.492;13.506;2022-08-23T11:39:22;28.30;97.40
19781;DHT22;10050;55.492;13.506;2022-08-23T11:41:32;28.20;97.00
19781;DHT22;10050;55.492;13.506;2022-08-23T11:46:31;28.30;97.50
19781;DHT22;10050;55.492;13.506;2022-08-23T11:54:35;28.50;99.90
19781;DHT22;10050;55.492;13.506;2022-08-23T12:08:24;28.10;97.30
19781;DHT22;10050;55.492;13.506;2022-08-23T12:18:41;27.90;97.80
19781;DHT22;10050;55.492;13.506;2022-08-23T12:22:03;28.20;98.80
19781;DHT22;10050;55.492;13.506;2022-08-23T12:24:20;28.50;97.80
19781;DHT22;10050;55.492;13.506;2022-08-23T12:38:17;28.10;94.50
19781;DHT22;10050;55.492;13.506;2022-08-23T12:40:48;28.00;94.90
19781;DHT22;10050;55.492;13.506;2022-08-23T12:43:26;28.20;95.30
19781;DHT22;10050;55.492;13.506;2022-08-23T12:45:57;28.50;96.10
19781;DHT22;10050;55.492;13.506;2022-08-23T12:48:30;28.70;94.70
19781;DHT22;10050;55.492;13.506;2022-08-23T12:51:01;28.70;94.60
19781;DHT22;10050;55.492;13.506;2022-08-23T12:53:34;28.80;94.50
19781;DHT22;10050;55.492;13.506;2022-08-23T12:56:13;28.70;94.10
19781;DHT22;10050;55.492;13.506;2022-08-23T12:58:45;28.80;95.60
19781;DHT22;10050;55.492;13.506;2022-08-23T13:01:27;28.80;93.30
19781;DHT22;10050;55.492;13.506;2022-08-23T13:04:18;28.50;92.40
19781;DHT22;10050;55.492;13.506;2022-08-23T13:06:46;28.60;92.50
19781;DHT22;10050;55.492;13.506;2022-08-23T13:09:17;28.30;94.60
19781;DHT22;10050;55.492;13.506;2022-08-23T13:11:45;28.20;93.10
19781;DHT22;10050;55.492;13.506;2022-08-23T13:14:36;27.90;94.50
19781;DHT22;10050;55.492;13.506;2022-08-23T13:22:32;28.60;94.80
19781;DHT22;10050;55.492;13.506;2022-08-23T13:25:08;28.90;94.20
19781;DHT22;10050;55.492;13.506;2022-08-23T13:32:38;28.70;93.20
19781;DHT22;10050;55.492;13.506;2022-08-23T13:38:12;28.50;92.90
19781;DHT22;10050;55.492;13.506;2022-08-23T13:41:02;28.60;94.80
19781;DHT22;10050;55.492;13.506;2022-08-23T13:43:45;28.50;91.10
19781;DHT22;10050;55.492;13.506;2022-08-23T13:49:21;28.50;91.60
19781;DHT22;10050;55.492;13.506;2022-08-23T13:51:41;28.30;90.10
19781;DHT22;10050;55.492;13.506;2022-08-23T13:54:10;27.90;91.30
19781;DHT22;10050;55.492;13.506;2022-08-23T13:56:42;28.00;91.20
19781;DHT22;10050;55.492;13.506;2022-08-23T13:59:28;28.20;91.80
19781;DHT22;10050;55.492;13.506;2022-08-23T14:01:55;28.40;92.30
19781;DHT22;10050;55.492;13.506;2022-08-23T14:04:21;28.40;92.20
19781;DHT22;10050;55.492;13.506;2022-08-23T14:06:46;28.20;94.30
19781;DHT22;10050;55.492;13.506;2022-08-23T14:09:13;27.70;99.00
19781;DHT22;10050;55.492;13.506;2022-08-23T14:11:39;27.50;99.90
19781;DHT22;10050;55.492;13.506;2022-08-23T14:14:05;26.90;99.10
19781;DHT22;10050;55.492;13.506;2022-08-23T14:16:34;26.70;99.90
19781;DHT22;10050;55.492;13.506;2022-08-23T14:19:01;26.70;99.90
19781;DHT22;10050;55.492;13.506;2022-08-23T14:21:27;26.60;99.90
19781;DHT22;10050;55.492;13.506;2022-08-23T14:23:53;26.60;99.90
19781;DHT22;10050;55.492;13.506;2022-08-23T14:26:19;26.50;99.90
19781;DHT22;10050;55.492;13.506;2022-08-23T14:28:46;26.50;99.90
19781;DHT22;10050;55.492;13.506;2022-08-23T14:31:12;26.30;99.90
19781;DHT22;10050;55.492;13.506;2022-08-23T14:33:39;26.10;99.90
19781;DHT22;10050;55.492;13.506;2022-08-23T14:36:05;25.90;99.90
19781;DHT22;10050;55.492;13.506;2022-08-23T14:38:31;25.90;99.90
19781;DHT22;10050;55.492;13.506;2022-08-23T14:41:01;25.90;99.90
19781;DHT22;10050;55.492;13.506;2022-08-23T14:43:29;25.80;99.90
19781;DHT22;10050;55.492;13.506;2022-08-23T14:45:55;25.80;99.90
19781;DHT22;10050;55.492;13.506;2022-08-23T14:48:22;25.60;99.90
19781;DHT22;10050;55.492;13.506;2022-08-23T14:50:49;25.60;99.90
19781;DHT22;10050;55.492;13.506;2022-08-23T14:53:17;25.50;99.90
19781;DHT22;10050;55.492;13.506;2022-08-23T14:55:44;25.50;99.90
19781;DHT22;10050;55.492;13.506;2022-08-23T14:58:10;25.50;99.90
19781;DHT22;10050;55.492;13.506;2022-08-23T15:00:36;25.50;99.90
19781;DHT22;10050;55.492;13.506;2022-08-23T15:03:04;25.40;99.90
19781;DHT22;10050;55.492;13.506;2022-08-23T15:05:32;25.50;99.90
19781;DHT22;10050;55.492;13.506;2022-08-23T15:07:58;25.50;99.90
19781;DHT22;10050;55.492;13.506;2022-08-23T15:10:23;25.40;99.90
19781;DHT22;10050;55.492;13.506;2022-08-23T15:12:49;25.40;99.90
19781;DHT22;10050;55.492;13.506;2022-08-23T15:15:19;25.10;99.90
19781;DHT22;10050;55.492;13.506;2022-08-23T15:17:49;25.10;99.00
19781;DHT22;10050;55.492;13.506;2022-08-23T15:20:18;25.00;99.10
19781;DHT22;10050;55.492;13.506;2022-08-23T15:22:44;25.00;99.90
19781;DHT22;10050;55.492;13.506;2022-08-23T15:25:11;25.00;99.90
19781;DHT22;10050;55.492;13.506;2022-08-23T15:27:36;24.90;99.90
19781;DHT22;10050;55.492;13.506;2022-08-23T15:30:03;24.90;99.90
19781;DHT22;10050;55.492;13.506;2022-08-23T15:32:29;24.80;99.90
19781;DHT22;10050;55.492;13.506;2022-08-23T15:34:54;24.80;99.90
19781;DHT22;10050;55.492;13.506;2022-08-23T15:37:20;24.50;99.90
19781;DHT22;10050;55.492;13.506;2022-08-23T15:39:46;24.50;99.90
19781;DHT22;10050;55.492;13.506;2022-08-23T15:42:11;24.30;99.90
19781;DHT22;10050;55.492;13.506;2022-08-23T15:44:37;24.20;99.90
19781;DHT22;10050;55.492;13.506;2022-08-23T15:47:04;24.20;99.90
19781;DHT22;10050;55.492;13.506;2022-08-23T15:49:37;24.10;99.90
19781;DHT22;10050;55.492;13.506;2022-08-23T15:52:03;24.00;99.90
19781;DHT22;10050;55.492;13.506;2022-08-23T15:54:29;24.00;99.90
19781;DHT22;10050;55.492;13.506;2022-08-23T15:56:55;24.00;99.90
19781;DHT22;10050;55.492;13.506;2022-08-23T15:59:21;23.80;99.90
19781;DHT22;10050;55.492;13.506;2022-08-23T16:01:46;23.80;99.90
19781;DHT22;10050;55.492;13.506;2022-08-23T16:04:12;23.70;99.90
19781;DHT22;10050;55.492;13.506;2022-08-23T16:06:38;23.50;99.90
19781;DHT22;10050;55.492;13.506;2022-08-23T16:09:07;23.60;99.90
19781;DHT22;10050;55.492;13.506;2022-08-23T16:11:36;23.70;99.90
19781;DHT22;10050;55.492;13.506;2022-08-23T16:14:02;23.90;99.90
19781;DHT22;10050;55.492;13.506;2022-08-23T16:16:33;23.90;99.90
19781;DHT22;10050;55.492;13.506;2022-08-23T16:19:00;23.80;99.90
19781;DHT22;10050;55.492;13.506;2022-08-23T16:21:28;23.60;99.90
19781;DHT22;10050;55.492;13.506;2022-08-23T16:23:55;23.60;99.90
19781;DHT22;10050;55.492;13.506;2022-08-23T16:26:24;23.60;99.90
19781;DHT22;10050;55.492;13.506;2022-08-23T16:28:53;23.50;99.90
19781;DHT22;10050;55.492;13.506;2022-08-23T16:31:19;23.50;99.90
19781;DHT22;10050;55.492;13.506;2022-08-23T16:33:45;23.40;99.90
19781;DHT22;10050;55.492;13.506;2022-08-23T16:36:13;23.30;99.90
19781;DHT22;10050;55.492;13.506;2022-08-23T16:38:42;23.40;99.90
19781;DHT22;10050;55.492;13.506;2022-08-23T16:41:08;23.50;99.90
19781;DHT22;10050;55.492;13.506;2022-08-23T16:43:33;23.40;99.90
19781;DHT22;10050;55.492;13.506;2022-08-23T16:45:59;23.30;99.90
19781;DHT22;10050;55.492;13.506;2022-08-23T16:48:25;23.10;99.90
19781;DHT22;10050;55.492;13.506;2022-08-23T16:50:50;23.00;99.90
19781;DHT22;10050;55.492;13.506;2022-08-23T16:53:16;23.00;99.90
19781;DHT22;10050;55.492;13.506;2022-08-23T16:55:42;23.00;99.90
19781;DHT22;10050;55.492;13.506;2022-08-23T16:58:08;23.10;99.90
19781;DHT22;10050;55.492;13.506;2022-08-23T17:00:34;22.90;99.90
19781;DHT22;10050;55.492;13.506;2022-08-23T17:03:01;22.90;99.90
19781;DHT22;10050;55.492;13.506;2022-08-23T17:05:27;22.90;99.90
19781;DHT22;10050;55.492;13.506;2022-08-23T17:07:54;22.80;99.90
19781;DHT22;10050;55.492;13.506;2022-08-23T17:10:21;22.80;99.90
19781;DHT22;10050;55.492;13.506;2022-08-23T17:12:50;22.90;99.90
19781;DHT22;10050;55.492;13.506;2022-08-23T17:15:20;22.80;99.90
19781;DHT22;10050;55.492;13.506;2022-08-23T17:17:47;22.80;99.90
19781;DHT22;10050;55.492;13.506;2022-08-23T17:20:14;22.80;99.90